Time;durP1;ratioP1;P1;durP2;ratioP2;P2;SDS_P1;SDS_P2;PMS_P1;PMS_P2;Temp;Humidity;BMP_temperature;BMP_pressure;BME280_temperature;BME280_humidity;BME280_pressure;Samples;Min_cycle;Max_cycle;Signal;HPM_P1;HPM_P2
2021/01/24 00:01:52;;;;;;;8.60;3.23;;;2.40;99.90;;;;;;5113079;28;20229;-76
2021/01/24 00:04:18;;;;;;;5.07;3.00;;;2.40;99.90;;;;;;5113621;28;20202;-76
2021/01/24 00:06:45;;;;;;;5.60;3.30;;;2.50;99.90;;;;;;5113288;28;20221;-76
2021/01/24 00:09:12;;;;;;;5.30;3.30;;;2.40;99.90;;;;;;5112996;28;20199;-76
2021/01/24 00:11:39;;;;;;;8.67;3.70;;;2.40;99.90;;;;;;5113229;28;20216;-76
2021/01/24 00:14:05;;;;;;;7.50;3.17;;;2.40;99.90;;;;;;5113094;28;20202;-75
2021/01/24 00:16:31;;;;;;;4.90;2.90;;;2.40;99.90;;;;;;5116473;28;20611;-76
2021/01/24 00:18:57;;;;;;;4.67;2.97;;;2.30;99.90;;;;;;5117341;28;20194;-76
2021/01/24 00:21:24;;;;;;;5.27;2.50;;;2.40;99.90;;;;;;5117075;28;20226;-76
2021/01/24 00:23:50;;;;;;;5.13;2.60;;;2.40;99.90;;;;;;5116969;28;20667;-76
2021/01/24 00:26:17;;;;;;;3.60;2.10;;;2.40;99.90;;;;;;5117211;28;20209;-76
2021/01/24 00:28:44;;;;;;;3.40;2.10;;;2.40;99.90;;;;;;5116873;28;20191;-76
2021/01/24 00:31:10;;;;;;;3.43;2.00;;;2.30;99.90;;;;;;5116989;28;20291;-76
2021/01/24 00:33:36;;;;;;;3.37;1.67;;;2.30;99.90;;;;;;5116822;28;20196;-76
2021/01/24 00:36:04;;;;;;;4.67;1.97;;;2.30;99.90;;;;;;5116869;28;20201;-76
2021/01/24 00:38:30;;;;;;;4.07;1.90;;;2.20;99.90;;;;;;5116550;28;20250;-76
2021/01/24 00:40:56;;;;;;;3.60;2.17;;;2.30;99.90;;;;;;5116402;28;20219;-76
2021/01/24 00:43:23;;;;;;;4.33;2.50;;;2.30;99.90;;;;;;5116729;28;20282;-76
2021/01/24 00:45:50;;;;;;;3.63;2.40;;;2.40;99.90;;;;;;5116652;28;20199;-76
2021/01/24 00:48:16;;;;;;;5.23;3.10;;;2.30;99.90;;;;;;5116649;28;20195;-76
2021/01/24 00:50:43;;;;;;;4.80;3.10;;;2.20;99.90;;;;;;5116395;28;20194;-76
2021/01/24 00:53:09;;;;;;;8.07;2.90;;;2.20;99.90;;;;;;5116475;28;20190;-76
2021/01/24 00:55:35;;;;;;;5.33;3.30;;;2.20;99.90;;;;;;5116317;28;20199;-76
2021/01/24 00:58:02;;;;;;;5.60;3.63;;;2.30;99.90;;;;;;5116494;28;20202;-76
2021/01/24 01:00:29;;;;;;;4.20;3.10;;;2.40;99.90;;;;;;5116335;28;20195;-76
2021/01/24 01:02:56;;;;;;;8.03;3.43;;;2.50;99.90;;;;;;5116253;28;20194;-76
2021/01/24 01:05:22;;;;;;;4.30;2.77;;;2.40;99.90;;;;;;5116066;28;20286;-76
2021/01/24 01:07:49;;;;;;;4.97;3.50;;;2.50;99.90;;;;;;5116197;28;20201;-76
2021/01/24 01:10:15;;;;;;;6.40;3.73;;;2.50;99.90;;;;;;5115969;28;20660;-76
2021/01/24 01:12:41;;;;;;;9.03;4.60;;;2.40;99.90;;;;;;5116090;28;20309;-76
2021/01/24 01:15:08;;;;;;;8.43;4.60;;;2.40;99.90;;;;;;5115956;28;20203;-76
2021/01/24 01:17:35;;;;;;;7.37;3.60;;;2.50;99.90;;;;;;5115717;28;20333;-76
2021/01/24 01:20:03;;;;;;;9.07;4.80;;;2.60;99.90;;;;;;5115944;28;20300;-76
2021/01/24 01:22:29;;;;;;;9.43;5.77;;;2.60;99.90;;;;;;5115741;28;20275;-76
2021/01/24 01:24:55;;;;;;;10.33;5.40;;;2.50;99.90;;;;;;5115461;28;20203;-76
2021/01/24 01:27:22;;;;;;;10.50;5.00;;;2.50;99.90;;;;;;5114502;28;20232;-76
2021/01/24 01:29:48;;;;;;;9.43;4.97;;;2.60;99.90;;;;;;5115797;28;20247;-76
2021/01/24 01:32:14;;;;;;;8.63;5.47;;;2.60;99.90;;;;;;5115692;28;20195;-77
2021/01/24 01:34:41;;;;;;;9.53;5.70;;;2.60;99.90;;;;;;5114922;28;20285;-76
2021/01/24 01:37:08;;;;;;;10.47;5.60;;;2.50;99.90;;;;;;5115456;28;20281;-76
2021/01/24 01:39:34;;;;;;;8.90;4.97;;;2.50;99.90;;;;;;5115154;28;20250;-76
2021/01/24 01:42:00;;;;;;;12.53;5.20;;;2.50;99.90;;;;;;5115509;28;20231;-76
2021/01/24 01:44:27;;;;;;;7.00;4.30;;;2.50;99.90;;;;;;5115625;28;20290;-76
2021/01/24 01:46:55;;;;;;;6.50;4.13;;;2.40;99.90;;;;;;5115485;28;20194;-76
2021/01/24 01:49:24;;;;;;;7.97;4.43;;;2.50;99.90;;;;;;5115400;28;20202;-76
2021/01/24 01:51:51;;;;;;;5.17;3.80;;;2.50;99.90;;;;;;5115305;28;20591;-76
2021/01/24 01:54:18;;;;;;;5.10;3.23;;;2.40;99.90;;;;;;5114891;28;20240;-76
2021/01/24 01:56:44;;;;;;;4.77;3.23;;;2.50;99.90;;;;;;5115164;28;20203;-75
2021/01/24 01:59:10;;;;;;;4.70;3.13;;;2.40;99.90;;;;;;5115021;28;20558;-76
2021/01/24 02:01:50;;;;;;;4.93;3.50;;;2.30;99.90;;;;;;5115156;28;20225;-76
2021/01/24 02:04:21;;;;;;;5.57;3.30;;;2.30;99.90;;;;;;5115510;28;20592;-76
2021/01/24 02:06:53;;;;;;;5.90;3.50;;;2.30;99.90;;;;;;5116289;28;20198;-75
2021/01/24 02:09:25;;;;;;;7.10;4.23;;;2.30;99.90;;;;;;5115718;28;20199;-76
2021/01/24 02:12:00;;;;;;;8.63;4.67;;;2.30;99.90;;;;;;5115037;28;20211;-76
2021/01/24 02:14:30;;;;;;;6.87;4.70;;;2.40;99.90;;;;;;5115049;28;20241;-76
2021/01/24 02:16:59;;;;;;;9.00;5.20;;;2.40;99.90;;;;;;5114781;28;20198;-76
2021/01/24 02:19:39;;;;;;;7.27;4.83;;;2.40;99.90;;;;;;5114850;28;20290;-76
2021/01/24 02:22:08;;;;;;;10.63;6.20;;;2.40;99.90;;;;;;5114779;28;20234;-76
2021/01/24 02:24:39;;;;;;;11.93;6.43;;;2.40;99.90;;;;;;5114573;28;20286;-76
2021/01/24 02:27:13;;;;;;;10.07;6.47;;;2.40;99.90;;;;;;5114635;28;20202;-76
2021/01/24 02:29:49;;;;;;;12.43;7.13;;;2.40;99.90;;;;;;5114577;28;20198;-76
2021/01/24 02:32:19;;;;;;;11.13;6.57;;;2.40;99.90;;;;;;5114695;28;20203;-76
2021/01/24 02:34:47;;;;;;;11.37;6.57;;;2.30;99.90;;;;;;5114463;28;20291;-75
2021/01/24 02:37:15;;;;;;;10.97;7.27;;;2.40;99.90;;;;;;5114496;28;20195;-76
2021/01/24 02:39:43;;;;;;;13.87;8.27;;;2.40;99.90;;;;;;5113948;28;20200;-76
2021/01/24 02:42:10;;;;;;;15.73;9.20;;;2.40;99.90;;;;;;5114317;28;20221;-76
2021/01/24 02:44:38;;;;;;;17.53;9.97;;;2.40;99.90;;;;;;5114152;28;20197;-76
2021/01/24 02:47:06;;;;;;;20.27;11.37;;;2.40;99.90;;;;;;5113900;28;20569;-76
2021/01/24 02:49:36;;;;;;;17.33;10.37;;;2.50;99.90;;;;;;5114065;28;20203;-76
2021/01/24 02:52:03;;;;;;;17.00;9.93;;;2.40;99.90;;;;;;5114072;28;20199;-76
2021/01/24 02:54:30;;;;;;;18.93;10.90;;;2.40;99.90;;;;;;5113867;28;20210;-76
2021/01/24 02:56:57;;;;;;;18.80;10.57;;;2.40;99.90;;;;;;5113988;28;20541;-76
2021/01/24 02:59:24;;;;;;;15.53;9.87;;;2.40;99.90;;;;;;5114121;28;20235;-76
2021/01/24 03:01:50;;;;;;;17.87;10.43;;;2.40;99.90;;;;;;5113649;28;20219;-76
2021/01/24 03:04:17;;;;;;;17.63;9.93;;;2.40;99.90;;;;;;5113861;28;20281;-75
2021/01/24 03:06:44;;;;;;;15.43;9.10;;;2.40;99.90;;;;;;5113870;28;20194;-75
2021/01/24 03:09:11;;;;;;;18.10;9.60;;;2.40;99.90;;;;;;5113604;28;20652;-75
2021/01/24 03:11:41;;;;;;;17.77;9.90;;;2.40;99.90;;;;;;5113773;28;20207;-75
2021/01/24 03:14:10;;;;;;;19.37;9.50;;;2.50;99.90;;;;;;5113784;28;20209;-75
2021/01/24 03:16:39;;;;;;;15.67;9.63;;;2.40;99.90;;;;;;5113531;28;20271;-75
2021/01/24 03:19:07;;;;;;;17.77;9.40;;;2.40;99.90;;;;;;5113521;28;20199;-75
2021/01/24 03:21:36;;;;;;;15.83;8.77;;;2.40;99.90;;;;;;5113280;28;20210;-75
2021/01/24 03:24:05;;;;;;;19.70;9.83;;;2.50;99.90;;;;;;5113543;28;20298;-75
2021/01/24 03:26:34;;;;;;;15.23;9.07;;;2.40;99.90;;;;;;5113562;28;20191;-75
2021/01/24 03:29:00;;;;;;;13.80;8.93;;;2.40;99.90;;;;;;5113693;28;20191;-75
2021/01/24 03:31:27;;;;;;;16.53;9.10;;;2.40;99.90;;;;;;5114227;28;20618;-75
2021/01/24 03:33:54;;;;;;;15.73;8.10;;;2.50;99.90;;;;;;5113305;28;20195;-76
2021/01/24 03:36:20;;;;;;;21.00;8.40;;;2.60;99.90;;;;;;5113200;28;20275;-75
2021/01/24 03:38:46;;;;;;;13.53;6.93;;;2.50;99.90;;;;;;5114046;28;20253;-75
2021/01/24 03:41:13;;;;;;;11.30;5.90;;;2.50;99.90;;;;;;5118371;28;20821;-75
2021/01/24 03:43:40;;;;;;;13.17;7.03;;;2.50;99.90;;;;;;5118172;28;20199;-75
2021/01/24 03:46:06;;;;;;;16.30;7.90;;;2.50;99.90;;;;;;5117082;28;20202;-75
2021/01/24 03:48:32;;;;;;;16.40;7.57;;;2.40;99.90;;;;;;5116778;28;20632;-75
2021/01/24 03:50:59;;;;;;;13.97;7.73;;;2.40;99.90;;;;;;5115411;28;20278;-76
2021/01/24 03:53:25;;;;;;;13.57;8.07;;;2.40;99.90;;;;;;5114498;28;20344;-76
2021/01/24 03:55:52;;;;;;;16.10;7.23;;;2.30;99.90;;;;;;5113160;28;20229;-75
2021/01/24 03:58:19;;;;;;;16.77;8.07;;;2.20;99.90;;;;;;5113242;28;20290;-75
2021/01/24 04:00:45;;;;;;;14.80;7.10;;;2.20;99.90;;;;;;5112996;28;20659;-75
2021/01/24 04:03:11;;;;;;;14.47;7.67;;;2.30;99.90;;;;;;5112941;28;20294;-75
2021/01/24 04:05:38;;;;;;;14.57;7.60;;;2.20;99.90;;;;;;5112855;28;20196;-76
2021/01/24 04:08:04;;;;;;;17.57;7.20;;;2.20;99.90;;;;;;5113103;28;20277;-75
2021/01/24 04:10:31;;;;;;;18.27;7.83;;;2.10;99.90;;;;;;5112751;28;20686;-75
2021/01/24 04:12:57;;;;;;;15.80;7.77;;;2.10;99.90;;;;;;5112763;28;20202;-76
2021/01/24 04:15:24;;;;;;;17.80;7.10;;;2.10;99.90;;;;;;5113005;28;20275;-75
2021/01/24 04:17:50;;;;;;;18.03;7.70;;;2.10;99.90;;;;;;5112883;28;20550;-75
2021/01/24 04:20:17;;;;;;;17.40;7.53;;;2.10;99.90;;;;;;5112930;28;20678;-75
2021/01/24 04:22:43;;;;;;;15.00;7.47;;;2.10;99.90;;;;;;5112933;28;20223;-76
2021/01/24 04:25:12;;;;;;;20.37;8.30;;;2.00;99.90;;;;;;5112898;28;20282;-75
2021/01/24 04:27:38;;;;;;;17.73;7.10;;;1.90;99.90;;;;;;5112918;28;20210;-75
2021/01/24 04:30:06;;;;;;;16.93;7.47;;;1.90;99.90;;;;;;5113274;28;20254;-76
2021/01/24 04:32:33;;;;;;;16.10;7.53;;;1.90;99.90;;;;;;5113062;28;20683;-76
2021/01/24 04:35:00;;;;;;;13.97;7.23;;;1.90;99.90;;;;;;5113093;28;20286;-76
2021/01/24 04:37:26;;;;;;;16.70;7.40;;;2.00;99.90;;;;;;5112808;28;20286;-76
2021/01/24 04:39:52;;;;;;;18.20;7.93;;;2.20;99.90;;;;;;5114306;28;20294;-74
2021/01/24 04:42:19;;;;;;;17.60;7.07;;;2.30;99.90;;;;;;5116282;28;20582;-75
2021/01/24 04:44:46;;;;;;;11.83;6.30;;;2.30;99.90;;;;;;5115829;28;20204;-76
2021/01/24 04:47:14;;;;;;;14.87;6.23;;;2.20;99.90;;;;;;5114693;28;20199;-76
2021/01/24 04:49:41;;;;;;;19.17;7.00;;;2.30;99.90;;;;;;5116183;28;20554;-75
2021/01/24 04:52:08;;;;;;;13.93;7.17;;;2.30;99.90;;;;;;5116401;28;20194;-76
2021/01/24 04:54:35;;;;;;;17.00;7.53;;;2.20;99.90;;;;;;5114707;28;20195;-76
2021/01/24 04:57:03;;;;;;;15.77;7.23;;;2.30;99.90;;;;;;5113338;28;20199;-75
2021/01/24 04:59:29;;;;;;;13.37;7.10;;;2.30;99.90;;;;;;5113649;28;20565;-76
2021/01/24 05:01:56;;;;;;;21.17;7.77;;;2.40;99.90;;;;;;5115317;28;20309;-76
2021/01/24 05:04:22;;;;;;;17.90;8.33;;;2.40;99.90;;;;;;5117622;28;20198;-76
2021/01/24 05:06:49;;;;;;;20.57;7.57;;;2.30;99.90;;;;;;5117681;28;20197;-76
2021/01/24 05:09:17;;;;;;;17.90;7.77;;;2.30;99.90;;;;;;5117277;28;20345;-76
2021/01/24 05:11:49;;;;;;;17.37;7.90;;;2.30;99.90;;;;;;5116879;28;20692;-76
2021/01/24 05:14:17;;;;;;;16.07;7.87;;;2.30;99.90;;;;;;5116811;28;20203;-76
2021/01/24 05:16:44;;;;;;;21.67;9.03;;;2.40;99.90;;;;;;5116180;28;20198;-75
2021/01/24 05:19:10;;;;;;;19.43;8.73;;;2.40;99.90;;;;;;5116393;28;20194;-76
2021/01/24 05:21:37;;;;;;;24.23;11.82;;;2.50;99.90;;;;;;5114973;28;20451;-75
2021/01/24 05:24:08;;;;;;;19.77;9.07;;;2.50;99.90;;;;;;5115947;28;20196;-76
2021/01/24 05:26:37;;;;;;;20.93;8.93;;;2.50;99.90;;;;;;5115833;28;20194;-76
2021/01/24 05:29:04;;;;;;;17.13;8.17;;;2.50;99.90;;;;;;5115864;28;20286;-75
2021/01/24 05:31:31;;;;;;;22.50;8.87;;;2.60;99.90;;;;;;5115823;28;20195;-75
2021/01/24 05:33:58;;;;;;;18.23;8.50;;;2.50;99.90;;;;;;5115706;28;20197;-75
2021/01/24 05:36:24;;;;;;;17.80;8.60;;;2.50;99.90;;;;;;5115752;28;20255;-75
2021/01/24 05:38:53;;;;;;;17.10;7.73;;;2.50;99.90;;;;;;5115602;28;20192;-75
2021/01/24 05:41:21;;;;;;;17.10;8.23;;;2.50;99.90;;;;;;5115262;28;20265;-76
2021/01/24 05:43:47;;;;;;;17.60;7.10;;;2.50;99.90;;;;;;5115540;28;20505;-75
2021/01/24 05:46:14;;;;;;;18.83;8.03;;;2.50;99.90;;;;;;5115406;28;20190;-76
2021/01/24 05:48:48;;;;;;;17.30;8.00;;;2.60;99.90;;;;;;5115283;28;20199;-76
2021/01/24 05:51:16;;;;;;;15.37;7.90;;;2.60;99.90;;;;;;5115416;28;20198;-76
2021/01/24 05:53:45;;;;;;;20.93;8.83;;;2.60;99.90;;;;;;5115410;28;20202;-76
2021/01/24 05:56:16;;;;;;;16.27;8.87;;;2.50;99.90;;;;;;5115427;28;20202;-75
2021/01/24 05:58:43;;;;;;;15.70;8.37;;;2.40;99.90;;;;;;5115089;28;20687;-76
2021/01/24 06:01:09;;;;;;;18.93;8.93;;;2.30;99.90;;;;;;5115345;28;20198;-75
2021/01/24 06:03:36;;;;;;;14.47;8.00;;;2.20;99.90;;;;;;5114950;28;20194;-75
2021/01/24 06:06:03;;;;;;;17.07;8.40;;;2.10;99.90;;;;;;5115040;28;20203;-75
2021/01/24 06:08:29;;;;;;;22.60;9.40;;;2.00;99.90;;;;;;5114727;28;20192;-76
2021/01/24 06:10:59;;;;;;;16.00;8.10;;;1.90;99.90;;;;;;5114584;28;20289;-76
2021/01/24 06:13:26;;;;;;;16.30;7.43;;;1.80;99.90;;;;;;5114292;28;20254;-75
2021/01/24 06:15:54;;;;;;;16.80;8.00;;;1.80;99.90;;;;;;5115007;28;20269;-75
2021/01/24 06:18:25;;;;;;;23.07;8.50;;;1.80;99.90;;;;;;5115073;28;20565;-76
2021/01/24 06:20:57;;;;;;;18.33;8.70;;;1.70;99.90;;;;;;5115801;28;20228;-76
2021/01/24 06:23:28;;;;;;;18.10;7.70;;;1.70;99.90;;;;;;5115150;28;20242;-76
2021/01/24 06:26:02;;;;;;;17.87;7.97;;;1.70;99.90;;;;;;5114739;28;20206;-75
2021/01/24 06:28:33;;;;;;;13.97;6.70;;;1.60;99.90;;;;;;5116869;28;20213;-75
2021/01/24 06:31:01;;;;;;;16.20;6.90;;;1.60;99.90;;;;;;5116429;28;20200;-75
2021/01/24 06:33:27;;;;;;;18.00;7.33;;;1.50;99.90;;;;;;5115341;28;20281;-76
2021/01/24 06:35:58;;;;;;;15.43;7.10;;;1.50;99.90;;;;;;5115881;28;20198;-75
2021/01/24 06:38:32;;;;;;;12.90;6.80;;;1.60;99.90;;;;;;5115184;28;20239;-76
2021/01/24 06:41:00;;;;;;;17.20;7.07;;;1.50;99.90;;;;;;5115001;28;20672;-75
2021/01/24 06:43:36;;;;;;;21.33;7.17;;;1.60;99.90;;;;;;5114673;28;20199;-76
2021/01/24 06:46:05;;;;;;;20.73;9.27;;;1.50;99.90;;;;;;5114810;28;20209;-76
2021/01/24 06:48:45;;;;;;;21.20;8.83;;;1.50;99.90;;;;;;5114500;28;20722;-75
2021/01/24 06:51:31;;;;;;;19.17;8.80;;;1.40;99.90;;;;;;5114632;28;20200;-76
2021/01/24 06:53:58;;;;;;;17.73;9.33;;;1.40;99.90;;;;;;5114358;28;20198;-76
2021/01/24 06:56:26;;;;;;;22.50;10.07;;;1.40;99.90;;;;;;5114106;28;20203;-76
2021/01/24 06:58:53;;;;;;;21.97;10.10;;;1.40;99.90;;;;;;5114462;28;20214;-76
2021/01/24 07:01:28;;;;;;;21.43;9.57;;;1.40;99.90;;;;;;5113863;28;20210;-76
2021/01/24 07:04:42;;;;;;;22.17;9.70;;;1.30;99.90;;;;;;5113680;28;20248;-76
2021/01/24 07:07:31;;;;;;;22.20;9.90;;;1.30;99.90;;;;;;5113919;28;20792;-75
2021/01/24 07:09:58;;;;;;;26.83;10.33;;;1.40;99.90;;;;;;5113480;28;20664;-76
2021/01/24 07:12:45;;;;;;;23.67;10.63;;;1.40;99.90;;;;;;5113508;28;20211;-75
2021/01/24 07:15:22;;;;;;;23.30;10.07;;;1.40;99.90;;;;;;5113481;28;20198;-76
2021/01/24 07:18:01;;;;;;;23.20;10.97;;;1.40;99.90;;;;;;5113631;28;20206;-76
2021/01/24 07:20:28;;;;;;;26.50;11.53;;;1.40;99.90;;;;;;5113451;28;20194;-76
2021/01/24 07:22:55;;;;;;;30.67;12.50;;;1.40;99.90;;;;;;5113437;28;20283;-75
2021/01/24 07:25:23;;;;;;;23.73;11.33;;;1.40;99.90;;;;;;5113284;28;20252;-76
2021/01/24 07:27:53;;;;;;;21.87;10.70;;;1.40;99.90;;;;;;5113075;28;20198;-76
2021/01/24 07:30:24;;;;;;;23.60;10.97;;;1.40;99.90;;;;;;5113467;28;20244;-76
2021/01/24 07:32:51;;;;;;;23.37;10.87;;;1.40;99.90;;;;;;5113038;28;20538;-76
2021/01/24 07:35:19;;;;;;;21.67;10.93;;;1.40;99.90;;;;;;5113118;28;20229;-76
2021/01/24 07:37:48;;;;;;;20.97;10.70;;;1.40;99.90;;;;;;5113169;28;20191;-76
2021/01/24 07:40:18;;;;;;;26.13;11.33;;;1.40;99.90;;;;;;5113403;28;20281;-76
2021/01/24 07:42:45;;;;;;;26.67;11.80;;;1.40;99.90;;;;;;5113035;28;20715;-75
2021/01/24 07:45:12;;;;;;;25.03;11.33;;;1.40;99.90;;;;;;5113213;28;20277;-77
2021/01/24 07:47:38;;;;;;;27.53;11.63;;;1.40;99.90;;;;;;5113337;28;20205;-76
2021/01/24 07:50:06;;;;;;;26.03;12.23;;;1.30;99.90;;;;;;5113120;28;20231;-76
2021/01/24 07:52:33;;;;;;;27.20;12.43;;;1.40;99.90;;;;;;5112980;28;20187;-75
2021/01/24 07:55:00;;;;;;;25.10;12.27;;;1.50;99.90;;;;;;5113026;28;20523;-76
2021/01/24 07:57:26;;;;;;;28.63;11.70;;;1.50;99.90;;;;;;5112820;28;20675;-76
2021/01/24 07:59:55;;;;;;;26.70;11.93;;;1.50;99.90;;;;;;5112839;28;20723;-75
2021/01/24 08:02:21;;;;;;;26.57;12.03;;;1.60;99.90;;;;;;5113067;28;20647;-76
2021/01/24 08:04:48;;;;;;;25.67;11.63;;;1.60;99.90;;;;;;5112834;28;20197;-75
2021/01/24 08:07:14;;;;;;;27.70;11.03;;;1.60;99.90;;;;;;5112752;28;20194;-76
2021/01/24 08:09:42;;;;;;;24.70;11.47;;;1.50;99.90;;;;;;5113030;28;20285;-75
2021/01/24 08:12:10;;;;;;;29.87;12.40;;;1.50;99.90;;;;;;5112811;28;20682;-75
2021/01/24 08:14:37;;;;;;;28.73;11.87;;;1.60;99.90;;;;;;5112485;28;20207;-76
2021/01/24 08:17:05;;;;;;;26.17;11.87;;;1.60;99.90;;;;;;5112502;28;20198;-75
2021/01/24 08:19:32;;;;;;;25.17;12.30;;;1.60;99.90;;;;;;5112679;28;20285;-75
2021/01/24 08:21:58;;;;;;;24.37;12.33;;;1.60;99.90;;;;;;5112582;28;20253;-75
2021/01/24 08:24:25;;;;;;;25.53;11.77;;;1.60;99.90;;;;;;5112969;28;20237;-75
2021/01/24 08:26:53;;;;;;;29.52;16.10;;;1.60;99.90;;;;;;5111905;28;20802;-75
2021/01/24 08:29:20;;;;;;;24.03;11.60;;;1.70;99.90;;;;;;5112464;28;20295;-75
2021/01/24 08:31:46;;;;;;;25.50;11.47;;;1.70;99.90;;;;;;5112661;28;20200;-75
2021/01/24 08:34:14;;;;;;;27.23;11.67;;;1.70;99.90;;;;;;5112632;28;20649;-75
2021/01/24 08:36:41;;;;;;;28.57;12.00;;;1.80;99.90;;;;;;5114217;28;20224;-76
2021/01/24 08:39:07;;;;;;;21.63;11.27;;;1.70;99.90;;;;;;5116918;28;20293;-76
2021/01/24 08:41:35;;;;;;;25.67;12.07;;;1.70;99.90;;;;;;5116636;28;20282;-76
2021/01/24 08:44:05;;;;;;;32.13;13.33;;;1.70;99.90;;;;;;5116271;28;20326;-75
2021/01/24 08:46:36;;;;;;;26.50;11.97;;;1.80;99.90;;;;;;5116274;28;20222;-75
2021/01/24 08:49:05;;;;;;;24.87;11.27;;;1.80;99.90;;;;;;5116089;28;20662;-76
2021/01/24 08:51:46;;;;;;;28.17;13.07;;;1.80;99.90;;;;;;5116603;28;20652;-75
2021/01/24 08:54:17;;;;;;;27.23;12.43;;;1.90;99.90;;;;;;5116293;28;20198;-76
2021/01/24 08:56:44;;;;;;;27.17;13.40;;;1.90;99.90;;;;;;5116586;28;20294;-76
2021/01/24 08:59:22;;;;;;;27.27;13.40;;;1.90;99.90;;;;;;5116703;28;20199;-76
2021/01/24 09:01:50;;;;;;;24.33;12.87;;;1.90;99.90;;;;;;5116428;28;20226;-76
2021/01/24 09:04:25;;;;;;;29.50;13.17;;;1.90;99.90;;;;;;5115933;28;20213;-76
2021/01/24 09:07:04;;;;;;;26.37;12.80;;;2.00;99.90;;;;;;5116095;28;20214;-75
2021/01/24 09:09:31;;;;;;;25.50;12.33;;;2.00;99.90;;;;;;5115935;28;20721;-76
2021/01/24 09:11:58;;;;;;;26.93;12.57;;;2.00;99.90;;;;;;5115550;28;20218;-75
2021/01/24 09:14:26;;;;;;;22.67;11.47;;;2.00;99.90;;;;;;5115845;28;20195;-75
2021/01/24 09:17:10;;;;;;;22.93;12.10;;;2.00;99.90;;;;;;5115803;28;20194;-75
2021/01/24 09:19:38;;;;;;;29.50;13.03;;;2.10;99.90;;;;;;5115606;28;20271;-75
2021/01/24 09:22:08;;;;;;;26.53;12.40;;;2.10;99.90;;;;;;5115671;28;20257;-75
2021/01/24 09:24:36;;;;;;;26.23;12.33;;;2.20;99.90;;;;;;5115912;28;20191;-76
2021/01/24 09:27:03;;;;;;;25.33;12.37;;;2.20;99.90;;;;;;5116010;28;20199;-76
2021/01/24 09:29:30;;;;;;;27.93;12.00;;;2.30;99.90;;;;;;5115524;28;20286;-76
2021/01/24 09:31:57;;;;;;;20.17;10.53;;;2.40;99.90;;;;;;5115226;28;20191;-76
2021/01/24 09:34:23;;;;;;;30.30;11.23;;;2.50;99.90;;;;;;5115428;28;20309;-75
2021/01/24 09:36:49;;;;;;;22.13;10.57;;;2.60;99.90;;;;;;5114827;28;20226;-75
2021/01/24 09:39:16;;;;;;;25.40;11.93;;;2.60;99.90;;;;;;5115261;28;20207;-76
2021/01/24 09:41:42;;;;;;;19.07;10.83;;;2.70;99.90;;;;;;5114795;28;20230;-75
2021/01/24 09:44:09;;;;;;;23.20;10.70;;;2.80;99.90;;;;;;5115083;28;20285;-75
2021/01/24 09:46:36;;;;;;;24.67;10.07;;;2.90;99.90;;;;;;5114944;28;20677;-76
2021/01/24 09:49:04;;;;;;;20.57;10.00;;;2.90;99.90;;;;;;5113924;28;20201;-76
2021/01/24 09:51:31;;;;;;;22.27;10.07;;;2.90;99.90;;;;;;5114733;28;20197;-76
2021/01/24 09:53:57;;;;;;;21.03;9.33;;;3.00;99.90;;;;;;5113562;28;20576;-76
2021/01/24 09:56:25;;;;;;;20.83;10.13;;;3.20;99.90;;;;;;5114929;28;20210;-76
2021/01/24 09:58:52;;;;;;;19.33;9.83;;;3.20;99.90;;;;;;5115233;28;20198;-76
2021/01/24 10:01:18;;;;;;;20.07;10.33;;;3.30;99.90;;;;;;5114857;28;20227;-76
2021/01/24 10:03:46;;;;;;;22.73;10.00;;;3.40;99.90;;;;;;5114604;28;20223;-76
2021/01/24 10:06:13;;;;;;;21.53;10.70;;;3.40;99.90;;;;;;5114587;28;20203;-76
2021/01/24 10:08:39;;;;;;;20.70;10.13;;;3.40;99.90;;;;;;5114697;28;20260;-76
2021/01/24 10:11:06;;;;;;;21.83;9.83;;;3.50;99.90;;;;;;5114612;28;20221;-75
2021/01/24 10:13:32;;;;;;;19.27;10.30;;;3.60;99.90;;;;;;5114811;28;20405;-75
2021/01/24 10:15:59;;;;;;;21.00;9.47;;;3.80;99.90;;;;;;5115037;28;20200;-76
2021/01/24 10:18:25;;;;;;;20.43;9.73;;;4.00;99.90;;;;;;5114292;28;20200;-75
2021/01/24 10:20:53;;;;;;;19.03;9.77;;;4.10;99.90;;;;;;5114589;28;20247;-75
2021/01/24 10:23:21;;;;;;;20.93;10.07;;;4.10;99.90;;;;;;5114570;28;20220;-77
2021/01/24 10:25:49;;;;;;;18.53;9.90;;;4.20;99.90;;;;;;5116987;28;20195;-77
2021/01/24 10:28:15;;;;;;;19.07;9.57;;;4.40;99.90;;;;;;5115892;28;20248;-75
2021/01/24 10:30:42;;;;;;;18.00;9.67;;;4.40;99.90;;;;;;5115001;28;20202;-77
2021/01/24 10:33:09;;;;;;;18.77;9.83;;;4.50;99.90;;;;;;5114186;28;20201;-76
2021/01/24 10:35:36;;;;;;;20.27;9.47;;;4.40;99.90;;;;;;5114602;28;20604;-77
2021/01/24 10:38:03;;;;;;;18.07;9.00;;;4.40;99.90;;;;;;5114916;28;20290;-75
2021/01/24 10:40:29;;;;;;;15.90;8.90;;;4.50;99.90;;;;;;5114992;28;20198;-75
2021/01/24 10:42:57;;;;;;;15.70;8.63;;;4.60;99.90;;;;;;5114315;28;20310;-75
2021/01/24 10:45:24;;;;;;;19.57;9.43;;;4.60;99.90;;;;;;5114258;28;20546;-75
2021/01/24 10:47:51;;;;;;;17.47;9.37;;;4.60;99.90;;;;;;5113859;28;20583;-75
2021/01/24 10:50:17;;;;;;;21.00;9.40;;;4.70;99.90;;;;;;5114440;28;20196;-75
2021/01/24 10:52:43;;;;;;;17.47;10.03;;;4.80;99.90;;;;;;5117695;28;20226;-75
2021/01/24 10:55:11;;;;;;;16.20;9.73;;;4.90;99.90;;;;;;5115155;28;20286;-74
2021/01/24 10:57:38;;;;;;;18.03;9.80;;;4.90;99.90;;;;;;5114963;28;20659;-75
2021/01/24 11:00:06;;;;;;;19.77;9.93;;;4.90;99.90;;;;;;5114122;28;20662;-76
2021/01/24 11:02:33;;;;;;;20.80;9.73;;;5.00;99.90;;;;;;5113689;28;20224;-75
2021/01/24 11:04:59;;;;;;;18.90;9.33;;;5.10;99.90;;;;;;5114043;28;20231;-75
2021/01/24 11:07:26;;;;;;;17.40;9.73;;;5.10;99.90;;;;;;5113942;28;20637;-75
2021/01/24 11:09:53;;;;;;;22.57;9.70;;;5.10;99.90;;;;;;5113529;28;20198;-75
2021/01/24 11:12:20;;;;;;;18.03;9.13;;;5.30;99.90;;;;;;5113378;28;20207;-75
2021/01/24 11:14:46;;;;;;;18.97;9.47;;;5.20;99.90;;;;;;5113333;28;20195;-75
2021/01/24 11:17:13;;;;;;;16.70;8.87;;;5.30;99.90;;;;;;5113282;28;20706;-75
2021/01/24 11:19:39;;;;;;;22.17;9.47;;;5.30;99.90;;;;;;5113364;28;20193;-75
2021/01/24 11:22:06;;;;;;;18.63;9.17;;;5.30;99.90;;;;;;5113758;28;20219;-75
2021/01/24 11:24:32;;;;;;;18.13;9.07;;;5.30;99.90;;;;;;5113242;28;20633;-75
2021/01/24 11:26:58;;;;;;;20.30;9.30;;;5.40;99.90;;;;;;5113151;28;20204;-75
2021/01/24 11:29:26;;;;;;;20.73;9.33;;;5.40;99.90;;;;;;5113250;28;20198;-74
2021/01/24 11:31:52;;;;;;;17.07;8.77;;;5.30;99.90;;;;;;5113063;28;20300;-75
2021/01/24 11:34:18;;;;;;;16.57;8.07;;;5.30;99.90;;;;;;5112921;28;20588;-75
2021/01/24 11:36:45;;;;;;;21.20;9.10;;;5.40;99.90;;;;;;5113034;28;20252;-75
2021/01/24 11:39:11;;;;;;;18.03;8.43;;;5.50;99.90;;;;;;5112951;28;20193;-75
2021/01/24 11:41:37;;;;;;;14.97;8.00;;;5.60;99.90;;;;;;5112819;28;20291;-75
2021/01/24 11:44:04;;;;;;;14.20;7.97;;;5.50;99.90;;;;;;5112645;28;20313;-75
2021/01/24 11:46:31;;;;;;;15.33;8.20;;;5.60;99.90;;;;;;5112968;28;20294;-75
2021/01/24 11:48:57;;;;;;;15.83;7.73;;;5.50;99.90;;;;;;5113209;28;20619;-75
2021/01/24 11:51:27;;;;;;;14.73;8.33;;;5.30;99.90;;;;;;5112916;28;20271;-77
2021/01/24 11:53:53;;;;;;;12.83;7.33;;;5.50;99.90;;;;;;5111139;28;20257;-81
2021/01/24 11:56:20;;;;;;;13.90;7.10;;;5.40;99.90;;;;;;5112133;28;20293;-78
2021/01/24 11:58:47;;;;;;;15.40;7.63;;;5.30;99.90;;;;;;5124700;28;20187;-78
2021/01/24 12:01:14;;;;;;;17.30;8.47;;;5.20;99.90;;;;;;5121284;28;20200;-77
2021/01/24 12:03:42;;;;;;;17.90;7.97;;;5.20;99.90;;;;;;5119056;28;20263;-77
2021/01/24 12:06:08;;;;;;;17.07;7.97;;;5.20;99.90;;;;;;5114089;28;20244;-78
2021/01/24 12:08:34;;;;;;;18.63;8.13;;;5.40;99.90;;;;;;5112456;28;20202;-78
2021/01/24 12:11:01;;;;;;;17.07;8.17;;;5.40;99.90;;;;;;5112741;28;20204;-78
2021/01/24 12:13:27;;;;;;;15.10;7.63;;;5.50;99.90;;;;;;5116913;28;20196;-78
2021/01/24 12:15:53;;;;;;;13.37;7.40;;;5.60;99.90;;;;;;5116625;28;20290;-78
2021/01/24 12:18:20;;;;;;;12.77;7.30;;;5.60;99.90;;;;;;5116861;28;20202;-77
2021/01/24 12:20:47;;;;;;;12.60;7.23;;;5.70;99.90;;;;;;5122484;27;20200;-78
2021/01/24 12:23:13;;;;;;;17.87;8.90;;;5.80;99.90;;;;;;5105525;27;20241;-78
2021/01/24 12:25:40;;;;;;;19.33;8.97;;;5.90;99.90;;;;;;5122171;27;20352;-78
2021/01/24 12:28:06;;;;;;;16.93;8.43;;;6.00;99.90;;;;;;5118881;27;20321;-80
2021/01/24 12:30:32;;;;;;;20.93;10.30;;;6.00;99.90;;;;;;5120560;27;20198;-78
2021/01/24 12:32:59;;;;;;;15.47;8.40;;;6.00;99.90;;;;;;5113968;27;20294;-78
2021/01/24 12:35:25;;;;;;;15.43;7.93;;;6.00;99.90;;;;;;5119439;27;20192;-78
2021/01/24 12:37:53;;;;;;;13.57;8.47;;;6.00;99.90;;;;;;5123473;27;20226;-77
2021/01/24 12:40:20;;;;;;;14.13;7.97;;;5.90;99.90;;;;;;5122714;27;20281;-78
2021/01/24 12:42:47;;;;;;;14.83;7.90;;;5.90;99.90;;;;;;5126443;27;20306;-78
2021/01/24 12:45:14;;;;;;;16.57;8.07;;;5.90;99.90;;;;;;5125962;27;20202;-78
2021/01/24 12:47:41;;;;;;;23.07;9.10;;;5.90;99.90;;;;;;5125765;27;20195;-78
2021/01/24 12:50:08;;;;;;;14.03;8.03;;;5.80;99.90;;;;;;5123359;27;20328;-78